Time;durP1;ratioP1;P1;durP2;ratioP2;P2;SDS_P1;SDS_P2;PMS_P1;PMS_P2;Temp;Humidity;BMP_temperature;BMP_pressure;BME280_temperature;BME280_humidity;BME280_pressure;Samples;Min_cycle;Max_cycle;Signal;HPM_P1;HPM_P2
2023/06/18 00:00:45;;;;;;;;;15.00;12.25;;;;;;;;4974688;28;46340;-73
2023/06/18 00:03:10;;;;;;;;;14.00;14.00;;;;;;;;4974822;28;45394;-73
2023/06/18 00:05:35;;;;;;;;;14.50;12.50;;;;;;;;4973995;28;45428;-73
2023/06/18 00:08:00;;;;;;;;;12.75;11.25;;;;;;;;4974524;28;45547;-74
2023/06/18 00:10:26;;;;;;;;;12.75;12.25;;;;;;;;4974758;28;45713;-73
2023/06/18 00:12:51;;;;;;;;;13.50;13.50;;;;;;;;4977202;28;45313;-73
2023/06/18 00:15:16;;;;;;;;;13.75;12.00;;;;;;;;4977297;28;45511;-73
2023/06/18 00:17:41;;;;;;;;;17.50;15.00;;;;;;;;4976950;28;45348;-73
2023/06/18 00:20:07;;;;;;;;;14.00;12.00;;;;;;;;4977345;28;46499;-73
2023/06/18 00:22:37;;;;;;;;;13.00;13.00;;;;;;;;4976471;28;45391;-72
2023/06/18 00:25:03;;;;;;;;;15.75;15.00;;;;;;;;4978295;28;45351;-73
2023/06/18 00:27:28;;;;;;;;;14.00;11.25;;;;;;;;4978336;28;45416;-73
2023/06/18 00:29:56;;;;;;;;;13.75;11.00;;;;;;;;4977526;28;47026;-73
2023/06/18 00:32:22;;;;;;;;;15.25;13.25;;;;;;;;4976444;28;45445;-73
2023/06/18 00:34:47;;;;;;;;;12.00;10.50;;;;;;;;4976870;28;45388;-73
2023/06/18 00:37:13;;;;;;;;;11.25;11.25;;;;;;;;4977088;28;45439;-73
2023/06/18 00:39:38;;;;;;;;;12.00;12.00;;;;;;;;4977983;28;46246;-73
2023/06/18 00:42:05;;;;;;;;;13.25;11.00;;;;;;;;4977931;28;45414;-73
2023/06/18 00:44:31;;;;;;;;;13.00;13.00;;;;;;;;4978160;28;45266;-73
2023/06/18 00:46:56;;;;;;;;;15.25;13.25;;;;;;;;4977093;28;45229;-73
2023/06/18 00:49:22;;;;;;;;;16.50;14.50;;;;;;;;4977276;28;46917;-73
2023/06/18 00:51:48;;;;;;;;;13.75;12.50;;;;;;;;4977179;28;45338;-73
2023/06/18 00:54:14;;;;;;;;;12.50;12.25;;;;;;;;4977525;28;45413;-73
2023/06/18 00:56:50;;;;;;;;;16.50;15.25;;;;;;;;4977972;28;45328;-74
2023/06/18 00:59:21;;;;;;;;;15.25;14.00;;;;;;;;4977936;28;46411;-73
2023/06/18 01:01:47;;;;;;;;;19.50;19.50;;;;;;;;4977792;28;45246;-75
2023/06/18 01:04:13;;;;;;;;;21.75;19.50;;;;;;;;4977849;28;45230;-68
2023/06/18 01:06:39;;;;;;;;;18.25;17.00;;;;;;;;4975863;28;45612;-69
2023/06/18 01:09:05;;;;;;;;;11.50;10.50;;;;;;;;4964483;28;45481;-69
2023/06/18 01:11:33;;;;;;;;;12.75;12.75;;;;;;;;4957469;28;45419;-70
2023/06/18 01:13:59;;;;;;;;;14.00;14.00;;;;;;;;4957387;28;45364;-69
2023/06/18 01:16:24;;;;;;;;;16.50;14.75;;;;;;;;4957339;28;45328;-69
2023/06/18 01:18:50;;;;;;;;;16.25;16.25;;;;;;;;4957352;28;46572;-69
2023/06/18 01:21:19;;;;;;;;;20.00;17.75;;;;;;;;4956345;28;45496;-67
2023/06/18 01:23:50;;;;;;;;;15.75;14.25;;;;;;;;4956308;28;45362;-68
2023/06/18 01:26:21;;;;;;;;;18.25;17.00;;;;;;;;4967626;28;45523;-68
2023/06/18 01:28:53;;;;;;;;;10.00;10.00;;;;;;;;4967646;28;46995;-68
2023/06/18 01:31:25;;;;;;;;;16.75;16.75;;;;;;;;4956922;28;45337;-68
2023/06/18 01:33:51;;;;;;;;;11.00;10.50;;;;;;;;4957357;28;45381;-68
2023/06/18 01:36:24;;;;;;;;;17.25;16.25;;;;;;;;4956834;28;45271;-69
2023/06/18 01:38:51;;;;;;;;;17.25;17.25;;;;;;;;4957031;28;45414;-69
2023/06/18 01:41:24;;;;;;;;;18.25;18.25;;;;;;;;4956628;28;45539;-69
2023/06/18 01:48:57;;;;;;;;;19.00;18.00;;;;;;;;3436357;28;234069446;-69
2023/06/18 01:52:26;;;;;;;;;18.50;15.50;;;;;;;;1544405;28;72606615;-68
2023/06/18 01:55:51;;;;;;;;;25.50;25.50;;;;;;;;1906031;28;46460943;-68
2023/06/18 02:01:20;;;;;;;;;26.00;17.50;;;;;;;;532674;28;214857025;-68
2023/06/18 02:03:45;;;;;;;;;27.67;25.33;;;;;;;;1726038;28;55750044;-68
2023/06/18 02:06:10;;;;;;;;;21.00;21.00;;;;;;;;3650378;28;18433625;-68
2023/06/18 02:08:35;;;;;;;;;26.25;22.00;;;;;;;;4992043;28;28398;-69
2023/06/18 02:11:00;;;;;;;;;28.25;23.00;;;;;;;;4982491;28;45238;-68
2023/06/18 02:13:26;;;;;;;;;24.25;22.00;;;;;;;;4976302;28;47336;-68
2023/06/18 02:15:51;;;;;;;;;25.75;18.75;;;;;;;;4986036;28;45288;-68
2023/06/18 02:18:16;;;;;;;;;17.00;15.00;;;;;;;;4991423;28;38322;-68
2023/06/18 02:20:41;;;;;;;;;17.00;14.50;;;;;;;;4976483;28;45317;-68
2023/06/18 02:23:07;;;;;;;;;8.25;8.25;;;;;;;;4976044;28;45555;-68
2023/06/18 02:25:33;;;;;;;;;9.75;9.00;;;;;;;;4976957;28;45596;-68
2023/06/18 02:27:59;;;;;;;;;11.00;11.00;;;;;;;;4980101;28;45507;-68
2023/06/18 02:30:25;;;;;;;;;7.00;7.00;;;;;;;;4959057;28;45492;-68
2023/06/18 02:32:50;;;;;;;;;8.00;7.00;;;;;;;;4958132;28;46287;-68
2023/06/18 02:35:16;;;;;;;;;11.75;10.75;;;;;;;;4955584;28;45377;-69
2023/06/18 02:37:42;;;;;;;;;6.75;6.75;;;;;;;;4956205;28;45322;-68
2023/06/18 02:40:08;;;;;;;;;6.75;5.25;;;;;;;;4955011;28;45389;-68
2023/06/18 02:42:33;;;;;;;;;9.75;4.25;;;;;;;;4965519;28;46242;-68
2023/06/18 02:44:59;;;;;;;;;6.50;5.25;;;;;;;;4974611;28;45479;-68
2023/06/18 02:47:25;;;;;;;;;5.00;5.00;;;;;;;;4976162;28;45430;-69
2023/06/18 02:49:50;;;;;;;;;6.00;6.00;;;;;;;;4975965;28;45431;-69
2023/06/18 02:52:15;;;;;;;;;7.00;7.00;;;;;;;;4975400;28;45955;-69
2023/06/18 02:54:43;;;;;;;;;7.50;5.25;;;;;;;;4975045;28;45400;-69
2023/06/18 02:57:08;;;;;;;;;7.75;6.50;;;;;;;;4975928;28;45328;-69
2023/06/18 02:59:33;;;;;;;;;7.50;6.25;;;;;;;;4975723;28;45394;-68
2023/06/18 03:01:59;;;;;;;;;5.75;5.50;;;;;;;;4975752;28;46621;-68
2023/06/18 03:04:24;;;;;;;;;7.00;6.50;;;;;;;;4974554;28;45389;-68
2023/06/18 03:06:49;;;;;;;;;6.75;6.75;;;;;;;;4975638;28;45388;-68
2023/06/18 03:09:14;;;;;;;;;6.25;6.25;;;;;;;;4975826;28;45455;-69
2023/06/18 03:11:39;;;;;;;;;8.75;7.75;;;;;;;;4975627;28;46221;-69
2023/06/18 03:14:05;;;;;;;;;7.00;6.00;;;;;;;;4975102;28;45340;-68
2023/06/18 03:16:31;;;;;;;;;7.75;6.75;;;;;;;;4975024;28;45291;-69
2023/06/18 03:18:56;;;;;;;;;9.25;8.00;;;;;;;;4975267;28;45439;-69
2023/06/18 03:21:21;;;;;;;;;8.25;7.00;;;;;;;;4975091;28;45959;-69
2023/06/18 03:23:47;;;;;;;;;8.50;6.00;;;;;;;;4974582;28;45341;-69
2023/06/18 03:26:12;;;;;;;;;7.00;6.00;;;;;;;;4974977;28;45313;-69
2023/06/18 03:28:37;;;;;;;;;6.00;6.00;;;;;;;;4974014;28;45221;-69
2023/06/18 03:31:02;;;;;;;;;4.25;4.25;;;;;;;;4973458;28;47317;-69
2023/06/18 03:33:29;;;;;;;;;5.00;4.00;;;;;;;;4975029;28;45368;-69
2023/06/18 03:35:55;;;;;;;;;4.50;4.25;;;;;;;;4974998;28;45289;-70
2023/06/18 03:38:20;;;;;;;;;2.50;2.50;;;;;;;;4975058;28;45400;-69
2023/06/18 03:40:45;;;;;;;;;5.00;5.00;;;;;;;;4974803;28;46119;-70
2023/06/18 03:43:10;;;;;;;;;8.25;4.25;;;;;;;;4974741;28;45405;-70
2023/06/18 03:45:35;;;;;;;;;4.25;3.00;;;;;;;;4975150;28;45357;-70
2023/06/18 03:48:01;;;;;;;;;6.00;5.00;;;;;;;;4977725;28;45363;-70
2023/06/18 03:50:26;;;;;;;;;4.00;4.00;;;;;;;;4977231;28;46359;-70
2023/06/18 03:52:52;;;;;;;;;2.00;2.00;;;;;;;;4978238;28;45319;-69
2023/06/18 03:55:17;;;;;;;;;3.75;3.75;;;;;;;;4977718;28;45331;-70
2023/06/18 03:57:42;;;;;;;;;3.75;3.75;;;;;;;;4977720;28;45494;-70
2023/06/18 04:00:09;;;;;;;;;4.75;4.75;;;;;;;;4976206;28;48569;-70
2023/06/18 04:02:34;;;;;;;;;2.75;2.75;;;;;;;;4977340;28;45458;-70
2023/06/18 04:04:59;;;;;;;;;3.00;3.00;;;;;;;;4977914;28;45748;-70
2023/06/18 04:07:24;;;;;;;;;4.25;4.25;;;;;;;;4977441;28;45446;-70
2023/06/18 04:09:50;;;;;;;;;4.75;3.00;;;;;;;;4977192;28;45986;-70
2023/06/18 04:12:15;;;;;;;;;3.00;3.00;;;;;;;;4978209;28;45463;-70
2023/06/18 04:14:40;;;;;;;;;3.50;2.75;;;;;;;;4978296;28;45369;-70
2023/06/18 04:17:06;;;;;;;;;4.50;4.00;;;;;;;;4978270;28;45503;-70
2023/06/18 04:19:31;;;;;;;;;3.25;3.25;;;;;;;;4978117;28;47073;-70
2023/06/18 04:21:56;;;;;;;;;4.00;4.00;;;;;;;;4977798;28;45433;-70
2023/06/18 04:24:21;;;;;;;;;6.50;6.50;;;;;;;;4978329;28;45341;-71
2023/06/18 04:26:47;;;;;;;;;3.50;3.25;;;;;;;;4978092;28;45459;-70
2023/06/18 04:29:12;;;;;;;;;4.00;4.00;;;;;;;;4977396;28;45330;-70
2023/06/18 04:31:37;;;;;;;;;3.75;3.50;;;;;;;;4975953;28;45498;-70
2023/06/18 04:34:02;;;;;;;;;2.50;2.50;;;;;;;;4977905;28;45380;-71
2023/06/18 04:36:28;;;;;;;;;5.00;3.00;;;;;;;;4977433;28;45575;-70
2023/06/18 04:38:53;;;;;;;;;3.75;2.00;;;;;;;;4977415;28;47057;-70
2023/06/18 04:41:18;;;;;;;;;2.00;2.00;;;;;;;;4977913;28;45296;-71
2023/06/18 04:43:43;;;;;;;;;5.00;3.25;;;;;;;;4974655;28;45428;-71
2023/06/18 04:46:09;;;;;;;;;4.25;4.25;;;;;;;;4966729;28;45344;-71
2023/06/18 04:48:34;;;;;;;;;2.75;2.75;;;;;;;;4958984;28;45468;-70
2023/06/18 04:51:00;;;;;;;;;2.75;2.75;;;;;;;;4965870;28;45500;-70
2023/06/18 04:53:25;;;;;;;;;4.00;4.00;;;;;;;;4965805;28;45507;-70
2023/06/18 04:55:50;;;;;;;;;4.50;4.50;;;;;;;;4977624;28;45454;-70
2023/06/18 04:58:15;;;;;;;;;5.75;5.50;;;;;;;;4976451;28;46001;-70
2023/06/18 05:00:40;;;;;;;;;5.00;4.25;;;;;;;;4974492;28;45531;-70
2023/06/18 05:03:06;;;;;;;;;4.25;2.75;;;;;;;;4962898;28;45456;-70
2023/06/18 05:05:31;;;;;;;;;3.75;3.50;;;;;;;;4970458;28;45539;-70
2023/06/18 05:07:56;;;;;;;;;2.25;2.25;;;;;;;;4957310;28;46140;-70
2023/06/18 05:10:22;;;;;;;;;4.50;4.50;;;;;;;;4957770;28;45392;-70
2023/06/18 05:12:47;;;;;;;;;4.00;4.00;;;;;;;;4957703;28;45367;-70
2023/06/18 05:15:13;;;;;;;;;6.00;5.00;;;;;;;;4957114;28;45387;-70
2023/06/18 05:17:38;;;;;;;;;7.25;4.25;;;;;;;;4957633;28;45334;-70
2023/06/18 05:20:04;;;;;;;;;4.00;2.25;;;;;;;;4956708;28;45401;-70
2023/06/18 05:22:29;;;;;;;;;7.00;4.50;;;;;;;;4958207;28;45377;-71
2023/06/18 05:24:55;;;;;;;;;3.25;3.25;;;;;;;;4958152;28;45381;-71
2023/06/18 05:27:20;;;;;;;;;3.25;2.25;;;;;;;;4957748;28;45548;-70
2023/06/18 05:29:45;;;;;;;;;8.75;7.00;;;;;;;;4957676;28;45340;-70
2023/06/18 05:32:10;;;;;;;;;3.50;3.50;;;;;;;;4957356;28;45382;-70
2023/06/18 05:34:36;;;;;;;;;4.25;3.75;;;;;;;;4957197;28;45473;-70
2023/06/18 05:37:01;;;;;;;;;4.50;2.00;;;;;;;;4957363;28;46053;-70
2023/06/18 05:39:26;;;;;;;;;3.25;3.25;;;;;;;;4961815;28;45295;-71
2023/06/18 05:41:51;;;;;;;;;4.25;4.25;;;;;;;;4967529;28;45522;-71
2023/06/18 05:44:16;;;;;;;;;5.25;3.50;;;;;;;;4976875;28;45312;-70
2023/06/18 05:46:42;;;;;;;;;5.75;4.00;;;;;;;;4975832;28;46083;-70
2023/06/18 05:49:07;;;;;;;;;3.00;3.00;;;;;;;;4975495;28;45316;-70
2023/06/18 05:51:32;;;;;;;;;4.25;4.00;;;;;;;;4976547;28;45289;-70
2023/06/18 05:53:57;;;;;;;;;6.00;5.00;;;;;;;;4976264;28;45386;-70
2023/06/18 05:56:22;;;;;;;;;6.75;5.00;;;;;;;;4976628;28;46185;-70
2023/06/18 05:58:48;;;;;;;;;2.25;2.25;;;;;;;;4976820;28;45316;-70
2023/06/18 06:01:14;;;;;;;;;3.00;3.00;;;;;;;;4976872;28;45346;-70
2023/06/18 06:03:39;;;;;;;;;4.00;3.75;;;;;;;;4975641;28;45368;-71
2023/06/18 06:06:05;;;;;;;;;9.50;8.50;;;;;;;;4976414;28;45250;-71
2023/06/18 06:08:30;;;;;;;;;3.50;3.50;;;;;;;;4976336;28;45502;-71
2023/06/18 06:10:56;;;;;;;;;4.00;4.00;;;;;;;;4975665;28;45398;-70
2023/06/18 06:13:21;;;;;;;;;4.00;4.00;;;;;;;;4976243;28;45351;-70
2023/06/18 06:15:46;;;;;;;;;4.00;3.00;;;;;;;;4975626;28;45388;-70
2023/06/18 06:18:11;;;;;;;;;4.00;4.00;;;;;;;;4976260;28;45305;-71
2023/06/18 06:20:37;;;;;;;;;5.25;4.00;;;;;;;;4975794;28;45332;-71
2023/06/18 06:23:02;;;;;;;;;6.25;5.25;;;;;;;;4966729;28;45339;-71
2023/06/18 06:25:27;;;;;;;;;4.25;3.50;;;;;;;;4972687;28;46957;-71
2023/06/18 06:27:52;;;;;;;;;4.00;4.00;;;;;;;;4956754;28;45425;-71
2023/06/18 06:30:17;;;;;;;;;4.50;4.50;;;;;;;;4956327;28;45377;-71
2023/06/18 06:32:43;;;;;;;;;4.50;4.50;;;;;;;;4955191;28;45306;-71
2023/06/18 06:35:08;;;;;;;;;6.25;3.75;;;;;;;;4956166;28;47367;-68
2023/06/18 06:37:33;;;;;;;;;3.50;3.50;;;;;;;;4956558;28;45420;-71
2023/06/18 06:39:58;;;;;;;;;5.75;5.75;;;;;;;;4956214;28;45436;-70
2023/06/18 06:42:24;;;;;;;;;4.00;4.00;;;;;;;;4964263;28;45389;-70
2023/06/18 06:44:49;;;;;;;;;3.25;3.25;;;;;;;;4975830;28;45985;-70
2023/06/18 06:47:14;;;;;;;;;5.00;5.00;;;;;;;;4976019;28;45566;-70
2023/06/18 06:49:39;;;;;;;;;3.25;2.75;;;;;;;;4976158;28;45444;-70
2023/06/18 06:52:05;;;;;;;;;4.50;3.25;;;;;;;;4988913;28;44750;-70
2023/06/18 06:54:30;;;;;;;;;7.00;6.00;;;;;;;;4979129;28;45368;-71
2023/06/18 06:56:55;;;;;;;;;4.25;4.25;;;;;;;;4975632;28;45369;-70
2023/06/18 06:59:20;;;;;;;;;4.00;4.00;;;;;;;;4971182;28;45443;-70
2023/06/18 07:01:46;;;;;;;;;2.75;2.75;;;;;;;;4977183;28;45418;-71
2023/06/18 07:04:11;;;;;;;;;3.00;3.00;;;;;;;;4983148;28;45376;-71
2023/06/18 07:06:39;;;;;;;;;3.25;3.25;;;;;;;;4959331;28;45365;-70
2023/06/18 07:09:07;;;;;;;;;3.75;3.75;;;;;;;;4961640;28;45247;-70
2023/06/18 07:11:33;;;;;;;;;4.00;4.00;;;;;;;;4970550;28;44849;-70
2023/06/18 07:13:58;;;;;;;;;3.50;3.50;;;;;;;;4984494;28;29180;-70
2023/06/18 07:16:24;;;;;;;;;7.50;5.50;;;;;;;;4991215;28;28474;-70
2023/06/18 07:18:49;;;;;;;;;5.00;5.00;;;;;;;;4990679;28;28427;-70
2023/06/18 07:21:15;;;;;;;;;6.00;4.25;;;;;;;;4989406;28;28426;-70
2023/06/18 07:23:40;;;;;;;;;5.00;5.00;;;;;;;;4990893;28;28509;-71
2023/06/18 07:26:05;;;;;;;;;8.25;8.00;;;;;;;;4990766;28;28468;-70
2023/06/18 07:28:30;;;;;;;;;10.00;8.75;;;;;;;;4990665;28;28403;-70
2023/06/18 07:30:55;;;;;;;;;6.25;6.25;;;;;;;;4991165;28;28360;-70
2023/06/18 07:33:20;;;;;;;;;5.25;5.25;;;;;;;;4989316;28;28436;-71
2023/06/18 07:35:46;;;;;;;;;8.25;7.25;;;;;;;;4990953;28;28372;-70
2023/06/18 07:38:11;;;;;;;;;8.00;7.25;;;;;;;;4982349;28;28511;-70
2023/06/18 07:40:38;;;;;;;;;7.00;7.00;;;;;;;;4979191;28;28569;-70
2023/06/18 07:43:03;;;;;;;;;8.25;7.50;;;;;;;;4978404;28;28450;-70
2023/06/18 07:45:28;;;;;;;;;9.25;6.75;;;;;;;;4977883;28;28375;-70
2023/06/18 07:47:54;;;;;;;;;8.00;6.00;;;;;;;;4970542;28;28625;-71
2023/06/18 07:50:19;;;;;;;;;5.00;4.25;;;;;;;;4972597;28;28437;-70
2023/06/18 07:52:44;;;;;;;;;7.00;7.00;;;;;;;;4979251;28;28365;-70
2023/06/18 07:55:10;;;;;;;;;7.00;7.00;;;;;;;;4987981;28;28366;-70
2023/06/18 07:57:35;;;;;;;;;7.00;6.00;;;;;;;;4990925;28;28378;-71
2023/06/18 08:00:00;;;;;;;;;5.50;5.50;;;;;;;;4990526;28;28397;-71
2023/06/18 08:02:26;;;;;;;;;5.50;5.50;;;;;;;;4989507;28;28423;-71
2023/06/18 08:04:51;;;;;;;;;4.50;4.50;;;;;;;;4990874;28;28400;-70
2023/06/18 08:07:16;;;;;;;;;6.50;6.50;;;;;;;;4988915;28;28625;-71
2023/06/18 08:09:41;;;;;;;;;5.25;5.00;;;;;;;;4984443;28;45396;-70
2023/06/18 08:12:07;;;;;;;;;7.25;6.75;;;;;;;;4982260;28;28530;-71
2023/06/18 08:14:32;;;;;;;;;7.25;6.00;;;;;;;;4970444;28;28476;-71
2023/06/18 08:16:57;;;;;;;;;7.00;7.00;;;;;;;;4971190;28;28471;-70
2023/06/18 08:19:22;;;;;;;;;8.00;8.00;;;;;;;;4974312;28;28435;-71
2023/06/18 08:21:49;;;;;;;;;7.00;6.00;;;;;;;;4988131;28;28404;-70
2023/06/18 08:24:14;;;;;;;;;6.25;5.25;;;;;;;;4970424;28;28506;-69
2023/06/18 08:26:39;;;;;;;;;6.00;5.00;;;;;;;;4970893;28;28648;-71
2023/06/18 08:29:04;;;;;;;;;8.00;7.00;;;;;;;;4970700;28;28325;-70
2023/06/18 08:31:30;;;;;;;;;8.25;6.00;;;;;;;;4969682;28;28615;-70
2023/06/18 08:33:55;;;;;;;;;6.00;6.00;;;;;;;;4972362;28;28475;-70
2023/06/18 08:36:23;;;;;;;;;8.00;8.00;;;;;;;;4974029;28;27798;-70
2023/06/18 08:38:49;;;;;;;;;8.00;7.75;;;;;;;;4977799;28;28373;-70
2023/06/18 08:41:14;;;;;;;;;6.75;6.75;;;;;;;;4993114;28;28630;-70
2023/06/18 08:43:39;;;;;;;;;5.00;5.00;;;;;;;;4993317;28;28319;-71
2023/06/18 08:46:11;;;;;;;;;6.00;6.00;;;;;;;;4991647;28;28477;-71
2023/06/18 08:48:49;;;;;;;;;7.00;7.00;;;;;;;;4992962;28;28407;-70
2023/06/18 08:51:15;;;;;;;;;7.50;7.00;;;;;;;;4989495;28;29616;-71
2023/06/18 08:53:45;;;;;;;;;8.75;8.25;;;;;;;;4983211;28;28562;-71
2023/06/18 08:56:13;;;;;;;;;8.00;7.75;;;;;;;;4974722;28;28337;-71
2023/06/18 08:58:41;;;;;;;;;7.25;7.25;;;;;;;;4985756;28;28569;-71
2023/06/18 09:01:06;;;;;;;;;9.25;9.25;;;;;;;;4980694;28;28506;-71
2023/06/18 09:03:32;;;;;;;;;14.25;10.75;;;;;;;;4984367;28;28603;-71
2023/06/18 09:05:58;;;;;;;;;10.25;9.25;;;;;;;;4986553;28;28569;-70
2023/06/18 09:08:24;;;;;;;;;7.00;7.00;;;;;;;;4976048;28;28432;-70
2023/06/18 09:10:49;;;;;;;;;8.00;8.00;;;;;;;;4983941;28;30259;-70
2023/06/18 09:13:14;;;;;;;;;7.25;7.25;;;;;;;;4975349;28;28534;-70
2023/06/18 09:15:40;;;;;;;;;10.00;9.50;;;;;;;;4981469;28;28535;-70
2023/06/18 09:18:05;;;;;;;;;8.25;7.50;;;;;;;;4983720;28;28561;-71
2023/06/18 09:20:32;;;;;;;;;7.00;7.00;;;;;;;;4982216;28;28584;-71
2023/06/18 09:22:57;;;;;;;;;7.25;7.25;;;;;;;;4979811;28;28443;-71
2023/06/18 09:25:23;;;;;;;;;9.75;7.25;;;;;;;;4978550;28;28714;-70
2023/06/18 09:27:48;;;;;;;;;7.75;7.00;;;;;;;;4986630;28;28567;-70
2023/06/18 09:30:22;;;;;;;;;8.75;8.25;;;;;;;;4979787;28;28463;-70
2023/06/18 09:32:48;;;;;;;;;7.75;6.50;;;;;;;;4977478;28;28632;-71
2023/06/18 09:35:14;;;;;;;;;7.50;4.75;;;;;;;;4981173;28;28597;-69
2023/06/18 09:37:40;;;;;;;;;5.00;5.00;;;;;;;;4985150;28;28460;-71
2023/06/18 09:40:13;;;;;;;;;8.00;8.00;;;;;;;;4985025;28;31462;-72
2023/06/18 09:42:38;;;;;;;;;7.00;6.75;;;;;;;;4986160;28;28356;-71
2023/06/18 09:45:04;;;;;;;;;6.00;6.00;;;;;;;;4979006;28;28479;-72
2023/06/18 09:47:29;;;;;;;;;5.25;5.25;;;;;;;;4979918;28;29061;-71
2023/06/18 09:49:54;;;;;;;;;9.00;5.75;;;;;;;;4978755;28;28537;-72
2023/06/18 09:52:20;;;;;;;;;6.75;6.25;;;;;;;;4977933;28;28495;-72
2023/06/18 09:54:45;;;;;;;;;8.50;8.50;;;;;;;;4981376;28;28491;-72
2023/06/18 09:57:13;;;;;;;;;8.50;6.50;;;;;;;;4992412;28;28487;-72
2023/06/18 09:59:38;;;;;;;;;6.00;6.00;;;;;;;;4982755;28;28478;-71
2023/06/18 10:02:09;;;;;;;;;8.75;7.75;;;;;;;;4976703;28;28443;-72
2023/06/18 10:04:34;;;;;;;;;9.00;9.00;;;;;;;;4980322;28;28257;-71
2023/06/18 10:07:02;;;;;;;;;7.75;7.75;;;;;;;;4972645;28;28537;-72
2023/06/18 10:09:37;;;;;;;;;8.50;8.50;;;;;;;;4986061;28;28513;-71
2023/06/18 10:12:03;;;;;;;;;9.25;9.00;;;;;;;;4982284;28;28673;-71
2023/06/18 10:14:30;;;;;;;;;10.50;9.50;;;;;;;;4976505;28;28568;-72
2023/06/18 10:17:01;;;;;;;;;10.00;9.50;;;;;;;;4978198;28;28466;-72
2023/06/18 10:19:46;;;;;;;;;14.50;12.50;;;;;;;;4977846;28;29457;-72
2023/06/18 10:22:14;;;;;;;;;17.50;15.25;;;;;;;;4985816;28;28594;-72
2023/06/18 10:24:41;;;;;;;;;10.75;10.75;;;;;;;;4989236;28;28502;-72
2023/06/18 10:27:07;;;;;;;;;12.25;10.75;;;;;;;;4984889;28;28487;-72
2023/06/18 10:29:32;;;;;;;;;11.75;11.75;;;;;;;;4988849;28;29152;-72
2023/06/18 10:31:58;;;;;;;;;13.75;12.50;;;;;;;;4984822;28;28567;-72
2023/06/18 10:34:24;;;;;;;;;10.75;9.25;;;;;;;;4973639;28;28597;-71
2023/06/18 10:36:49;;;;;;;;;12.00;10.75;;;;;;;;4976627;28;28547;-72
2023/06/18 10:39:15;;;;;;;;;8.75;8.75;;;;;;;;4987425;28;30271;-72
2023/06/18 10:41:43;;;;;;;;;10.75;10.75;;;;;;;;4982129;28;28470;-71
2023/06/18 10:44:09;;;;;;;;;11.25;10.50;;;;;;;;4981415;28;28606;-71
2023/06/18 10:46:34;;;;;;;;;12.25;11.00;;;;;;;;4982668;28;45512;-71
2023/06/18 10:49:19;;;;;;;;;13.50;11.25;;;;;;;;4990337;28;29292;-71
2023/06/18 10:51:57;;;;;;;;;12.75;12.75;;;;;;;;4981592;28;28455;-72
2023/06/18 10:54:22;;;;;;;;;13.00;13.00;;;;;;;;4985301;28;28635;-72
2023/06/18 10:56:51;;;;;;;;;13.00;13.00;;;;;;;;4990469;28;28554;-71
2023/06/18 10:59:32;;;;;;;;;16.75;13.00;;;;;;;;4989746;28;44698;-72
2023/06/18 11:02:00;;;;;;;;;16.75;13.50;;;;;;;;4990052;28;28463;-73
2023/06/18 11:04:28;;;;;;;;;13.25;13.00;;;;;;;;4987662;28;28532;-72
2023/06/18 11:07:10;;;;;;;;;12.25;11.25;;;;;;;;4983952;28;28453;-74
2023/06/18 11:09:45;;;;;;;;;12.25;12.25;;;;;;;;4979804;28;28456;-72
2023/06/18 11:12:20;;;;;;;;;15.25;14.25;;;;;;;;4971643;28;28380;-74
2023/06/18 11:15:05;;;;;;;;;13.25;13.25;;;;;;;;4977323;28;28717;-74
2023/06/18 11:17:31;;;;;;;;;5.75;5.75;;;;;;;;4980002;28;28691;-73
2023/06/18 11:19:57;;;;;;;;;12.25;11.50;;;;;;;;4979828;28;39076;-74
2023/06/18 11:22:22;;;;;;;;;12.50;12.50;;;;;;;;4980531;28;44798;-74
2023/06/18 11:24:48;;;;;;;;;12.75;12.75;;;;;;;;4965402;28;45332;-73
2023/06/18 11:27:13;;;;;;;;;12.75;12.75;;;;;;;;4979881;28;28539;-74
2023/06/18 11:29:39;;;;;;;;;15.75;13.50;;;;;;;;4979463;28;29114;-74
2023/06/18 11:32:13;;;;;;;;;14.50;12.75;;;;;;;;4984344;28;28410;-74
2023/06/18 11:34:42;;;;;;;;;13.00;13.00;;;;;;;;4980225;28;30079;-73
2023/06/18 11:37:08;;;;;;;;;13.25;13.25;;;;;;;;4975300;28;28514;-73
2023/06/18 11:39:33;;;;;;;;;16.50;13.25;;;;;;;;4982201;28;28538;-73
2023/06/18 11:42:15;;;;;;;;;14.25;13.25;;;;;;;;4967555;28;45349;-73
2023/06/18 11:44:46;;;;;;;;;13.00;13.00;;;;;;;;4961975;28;45579;-73
2023/06/18 11:47:11;;;;;;;;;15.75;15.75;;;;;;;;4977011;28;28546;-73
2023/06/18 11:49:37;;;;;;;;;13.50;12.00;;;;;;;;4976951;28;30254;-72
2023/06/18 11:52:02;;;;;;;;;14.00;13.00;;;;;;;;4975060;28;44742;-72
2023/06/18 11:54:27;;;;;;;;;14.00;13.00;;;;;;;;4961535;28;45460;-72
2023/06/18 11:56:55;;;;;;;;;15.25;13.50;;;;;;;;4967945;28;45530;-72
2023/06/18 11:59:21;;;;;;;;;16.75;15.50;;;;;;;;4968802;28;47212;-73
2023/06/18 12:01:46;;;;;;;;;15.50;15.50;;;;;;;;4970731;28;45495;-72
2023/06/18 12:04:11;;;;;;;;;13.75;12.25;;;;;;;;4973439;28;45291;-72
2023/06/18 12:06:37;;;;;;;;;11.75;11.75;;;;;;;;4973732;28;45300;-73
2023/06/18 12:09:09;;;;;;;;;11.75;11.75;;;;;;;;4975957;28;47206;-73
2023/06/18 12:11:58;;;;;;;;;14.50;13.50;;;;;;;;4971404;28;45362;-73
2023/06/18 12:14:29;;;;;;;;;13.25;13.25;;;;;;;;4976298;28;45488;-73
2023/06/18 12:16:56;;;;;;;;;13.75;11.75;;;;;;;;4974584;28;45458;-73
2023/06/18 12:19:22;;;;;;;;;14.50;13.50;;;;;;;;4975426;28;46226;-73
2023/06/18 12:21:47;;;;;;;;;11.00;10.25;;;;;;;;4974658;28;45341;-73
2023/06/18 12:24:12;;;;;;;;;9.50;9.50;;;;;;;;4976646;28;45380;-72
2023/06/18 12:26:38;;;;;;;;;11.25;11.25;;;;;;;;4964766;28;45314;-70
2023/06/18 12:29:05;;;;;;;;;13.50;12.25;;;;;;;;4968829;28;46940;-74
2023/06/18 12:31:30;;;;;;;;;10.50;10.00;;;;;;;;4966150;28;45391;-70
2023/06/18 12:33:55;;;;;;;;;11.75;11.25;;;;;;;;4970947;28;45488;-69
2023/06/18 12:36:27;;;;;;;;;13.25;12.50;;;;;;;;4976613;28;45595;-76
2023/06/18 12:38:52;;;;;;;;;14.75;14.75;;;;;;;;4976381;28;47142;-74
2023/06/18 12:41:25;;;;;;;;;16.00;14.25;;;;;;;;4974773;28;45498;-74
2023/06/18 12:43:52;;;;;;;;;10.25;10.25;;;;;;;;4975320;28;45380;-78
2023/06/18 12:46:24;;;;;;;;;14.00;14.00;;;;;;;;4972724;28;45647;-74
2023/06/18 12:48:50;;;;;;;;;8.50;8.50;;;;;;;;4974764;28;46379;-78
2023/06/18 12:51:15;;;;;;;;;9.00;8.50;;;;;;;;4976901;28;45539;-77
2023/06/18 12:53:41;;;;;;;;;10.25;10.25;;;;;;;;4973593;28;45593;-80
2023/06/18 12:56:18;;;;;;;;;12.75;12.75;;;;;;;;4973745;28;45472;-68
2023/06/18 12:58:43;;;;;;;;;8.00;7.50;;;;;;;;4976224;28;47136;-71
2023/06/18 13:01:09;;;;;;;;;6.50;6.50;;;;;;;;4974293;28;45538;-71
2023/06/18 13:03:34;;;;;;;;;5.00;4.00;;;;;;;;4971000;28;45484;-70
2023/06/18 13:05:59;;;;;;;;;6.00;6.00;;;;;;;;4968050;28;45404;-71
2023/06/18 13:08:25;;;;;;;;;3.25;3.25;;;;;;;;4963583;28;45467;-71
2023/06/18 13:10:52;;;;;;;;;4.75;4.75;;;;;;;;4964218;28;45400;-70
2023/06/18 13:13:18;;;;;;;;;3.25;3.25;;;;;;;;4966501;28;45376;-70
2023/06/18 13:15:44;;;;;;;;;5.50;5.50;;;;;;;;4963686;28;45627;-69
2023/06/18 13:18:10;;;;;;;;;5.50;5.50;;;;;;;;4962774;28;48223;-69
2023/06/18 13:20:35;;;;;;;;;6.25;6.25;;;;;;;;4963271;28;45460;-70
2023/06/18 13:23:01;;;;;;;;;8.50;8.50;;;;;;;;4970617;28;45550;-69
2023/06/18 13:25:27;;;;;;;;;8.00;8.00;;;;;;;;4973391;28;45630;-71
2023/06/18 13:27:52;;;;;;;;;23.00;19.25;;;;;;;;4964323;28;45824;-70
2023/06/18 13:30:17;;;;;;;;;14.25;13.25;;;;;;;;4957368;28;45746;-69
2023/06/18 13:32:42;;;;;;;;;7.75;6.50;;;;;;;;4957823;28;45497;-70
2023/06/18 13:35:08;;;;;;;;;16.50;16.25;;;;;;;;4957860;28;45372;-69
2023/06/18 13:37:33;;;;;;;;;8.50;8.50;;;;;;;;4957265;28;46844;-70
2023/06/18 13:39:58;;;;;;;;;15.50;15.50;;;;;;;;4957592;28;45374;-69
2023/06/18 13:42:24;;;;;;;;;12.00;12.00;;;;;;;;4965764;28;45448;-70
2023/06/18 13:44:49;;;;;;;;;33.25;30.50;;;;;;;;4975853;28;45392;-69
2023/06/18 13:47:14;;;;;;;;;48.75;41.00;;;;;;;;4977138;28;47140;-69
2023/06/18 13:49:39;;;;;;;;;9.75;9.00;;;;;;;;4975823;28;45285;-73
2023/06/18 13:52:05;;;;;;;;;31.50;30.00;;;;;;;;4977055;28;45347;-70
2023/06/18 13:54:31;;;;;;;;;12.75;12.75;;;;;;;;4977345;28;45495;-71
2023/06/18 13:56:56;;;;;;;;;6.00;6.00;;;;;;;;4977177;28;46371;-71
2023/06/18 13:59:21;;;;;;;;;11.00;10.75;;;;;;;;4976877;28;45464;-69
2023/06/18 14:01:47;;;;;;;;;7.75;7.75;;;;;;;;4977112;28;45573;-69
2023/06/18 14:04:12;;;;;;;;;7.25;7.25;;;;;;;;4976987;28;45516;-70
2023/06/18 14:06:37;;;;;;;;;8.00;8.00;;;;;;;;4976628;28;46297;-70
2023/06/18 14:09:04;;;;;;;;;6.50;6.50;;;;;;;;4977206;28;45411;-71
2023/06/18 14:11:29;;;;;;;;;10.25;8.50;;;;;;;;4977195;28;45391;-70
2023/06/18 14:13:54;;;;;;;;;6.75;6.75;;;;;;;;4977050;28;45468;-71
2023/06/18 14:16:20;;;;;;;;;8.00;8.00;;;;;;;;4976470;28;46948;-71
2023/06/18 14:18:45;;;;;;;;;7.50;7.50;;;;;;;;4976556;28;45445;-70
2023/06/18 14:21:10;;;;;;;;;7.25;7.25;;;;;;;;4976328;28;45384;-70
2023/06/18 14:23:36;;;;;;;;;6.75;6.00;;;;;;;;4976225;28;45392;-70
2023/06/18 14:26:01;;;;;;;;;9.00;9.00;;;;;;;;4975879;28;46190;-70
2023/06/18 14:28:26;;;;;;;;;8.25;7.00;;;;;;;;4975809;28;45370;-71
2023/06/18 14:30:52;;;;;;;;;6.75;6.25;;;;;;;;4975425;28;45352;-70
2023/06/18 14:33:17;;;;;;;;;8.50;7.75;;;;;;;;4976309;28;45309;-70
2023/06/18 14:35:42;;;;;;;;;8.00;7.25;;;;;;;;4976020;28;47068;-70
2023/06/18 14:38:07;;;;;;;;;9.00;9.00;;;;;;;;4975022;28;45330;-71